Time;durP1;ratioP1;P1;durP2;ratioP2;P2;SDS_P1;SDS_P2;PMS_P1;PMS_P2;Temp;Humidity;BMP_temperature;BMP_pressure;BME280_temperature;BME280_humidity;BME280_pressure;Samples;Min_cycle;Max_cycle;Signal;HPM_P1;HPM_P2
2022/05/17 00:00:01;;;;;;;11.73;4.97;;;;;;;17.85;62.15;101335.94;2108488;28;20047;-70
2022/05/17 00:01:23;;;;;;;8.05;4.65;;;;;;;17.85;62.21;101333.25;2099705;28;20062;-70
2022/05/17 00:02:45;;;;;;;;;;;;;;;17.83;62.13;101332.38;2109909;28;20049;-69
2022/05/17 00:04:06;;;;;;;;;;;;;;;17.80;62.24;101333.25;2101846;28;19927;-70
2022/05/17 00:05:31;;;;;;;8.70;5.22;;;;;;;17.77;62.27;101333.28;2097294;28;20066;-70
2022/05/17 00:06:56;;;;;;;10.43;5.70;;;;;;;17.73;62.53;101331.50;2097515;28;20048;-70
2022/05/17 00:08:17;;;;;;;9.75;4.75;;;;;;;17.72;62.74;101335.06;2107001;28;20043;-72
2022/05/17 00:09:40;;;;;;;8.13;4.85;;;;;;;17.73;62.78;101322.59;2106783;28;20086;-70
2022/05/17 00:11:02;;;;;;;7.60;4.57;;;;;;;17.75;62.77;101327.06;2108134;28;20047;-70
2022/05/17 00:12:25;;;;;;;10.20;4.88;;;;;;;17.80;62.75;101327.03;2108393;28;20067;-70
2022/05/17 00:13:47;;;;;;;8.85;4.18;;;;;;;17.83;62.72;101327.91;2109528;28;20084;-69
2022/05/17 00:15:11;;;;;;;8.13;4.80;;;;;;;17.85;62.65;101327.91;2103880;28;20126;-70
2022/05/17 00:16:33;;;;;;;8.02;4.88;;;;;;;17.84;62.74;101326.13;2105194;28;20050;-69
2022/05/17 00:17:56;;;;;;;9.27;4.93;;;;;;;17.84;62.73;101324.34;2095048;28;20060;-70
2022/05/17 00:19:21;;;;;;;8.93;5.07;;;;;;;17.85;62.77;101319.91;2098816;28;20032;-69
2022/05/17 00:20:44;;;;;;;6.15;4.40;;;;;;;17.85;62.77;101318.09;2095646;28;20256;-70
2022/05/17 00:22:09;;;;;;;6.80;4.47;;;;;;;17.86;62.83;101324.31;2105905;28;20093;-69
2022/05/17 00:23:32;;;;;;;10.95;5.95;;;;;;;17.81;62.94;101318.13;2095530;28;20040;-70
2022/05/17 00:24:55;;;;;;;11.25;4.93;;;;;;;17.79;62.96;101314.56;2100261;28;20511;-72
2022/05/17 00:26:18;;;;;;;10.52;5.00;;;;;;;17.81;63.05;101323.47;2108056;28;20051;-72
2022/05/17 00:27:40;;;;;;;6.95;4.50;;;;;;;17.83;63.01;101319.00;2109089;28;20510;-69
2022/05/17 00:29:02;;;;;;;7.68;4.72;;;;;;;17.83;62.97;101316.34;2105319;28;20606;-70
2022/05/17 00:30:24;;;;;;;10.60;5.03;;;;;;;17.81;63.02;101313.66;2099078;28;20076;-70
2022/05/17 00:31:48;;;;;;;7.22;4.55;;;;;;;17.79;63.00;101312.78;2105147;28;20083;-70
2022/05/17 00:33:09;;;;;;;9.35;4.32;;;;;;;17.77;63.09;101319.03;2094057;28;20044;-72
2022/05/17 00:34:32;;;;;;;8.68;5.20;;;;;;;17.74;63.08;101314.59;2103892;28;20043;-70
2022/05/17 00:35:53;;;;;;;7.13;4.07;;;;;;;17.72;63.18;101320.84;2102548;28;20039;-70
2022/05/17 00:37:17;;;;;;;9.02;4.63;;;;;;;17.73;63.31;101317.25;2101361;28;20519;-70
2022/05/17 00:38:40;;;;;;;8.05;4.72;;;;;;;17.73;63.34;101319.94;2102424;28;20143;-70
2022/05/17 00:40:01;;;;;;;7.63;4.80;;;;;;;17.75;63.21;101323.50;2099660;28;20080;-70
2022/05/17 00:41:24;;;;;;;9.35;4.95;;;;;;;17.75;63.24;101318.16;2107236;28;20126;-70
2022/05/17 00:42:46;;;;;;;8.50;4.57;;;;;;;17.75;63.12;101320.81;2102697;28;20055;-72
2022/05/17 00:45:51;;;;;;;7.68;4.70;;;;;;;17.75;62.98;101319.03;2112277;28;20465;-70
2022/05/17 00:47:17;;;;;;;7.60;3.85;;;;;;;17.77;62.95;101319.94;2101930;28;20526;-70
2022/05/17 00:48:40;;;;;;;8.07;4.28;;;;;;;17.74;62.99;101319.03;2111732;28;20074;-70
2022/05/17 00:50:07;;;;;;;9.57;4.97;;;;;;;17.74;63.09;101319.94;2102113;28;20040;-71
2022/05/17 00:51:31;;;;;;;7.72;4.47;;;;;;;17.74;63.17;101317.25;2102752;28;20499;-70
2022/05/17 00:52:59;;;;;;;9.73;4.90;;;;;;;17.74;63.25;101313.69;2102491;28;20044;-71
2022/05/17 00:54:21;;;;;;;8.20;4.00;;;;;;;17.74;63.17;101313.69;2101931;28;20060;-71
2022/05/17 00:55:45;;;;;;;7.97;4.18;;;;;;;17.72;63.25;101313.69;2107821;28;20109;-70
2022/05/17 00:57:16;;;;;;;7.15;4.65;;;;;;;17.69;63.32;101310.16;2110348;28;20050;-71
2022/05/17 00:58:42;;;;;;;6.65;3.97;;;;;;;17.66;63.52;101307.50;2113616;28;20044;-70
2022/05/17 01:00:11;;;;;;;8.52;4.72;;;;;;;17.63;63.60;101305.75;2113144;28;20058;-70
2022/05/17 01:01:34;;;;;;;7.20;4.80;;;;;;;17.61;63.67;101304.88;2111132;28;20535;-70
2022/05/17 01:03:01;;;;;;;8.35;4.18;;;;;;;17.63;63.66;101302.19;2104554;28;20048;-71
2022/05/17 01:04:26;;;;;;;8.65;4.72;;;;;;;17.63;63.63;101296.84;2106715;28;20107;-70
2022/05/17 01:05:54;;;;;;;9.10;4.28;;;;;;;17.61;63.65;101304.88;2102611;28;20507;-70
2022/05/17 01:07:21;;;;;;;8.90;4.65;;;;;;;17.59;63.76;101311.09;2103141;28;20469;-70
2022/05/17 01:08:45;;;;;;;9.20;4.70;;;;;;;17.58;63.81;101304.84;2094515;28;20047;-71
2022/05/17 01:10:08;;;;;;;9.38;4.35;;;;;;;17.59;63.80;101303.94;2111904;27;20406;-71
2022/05/17 01:11:31;;;;;;;10.93;4.10;;;;;;;17.61;63.76;101307.53;2107613;28;20047;-71
2022/05/17 01:16:14;;;;;;;8.57;4.18;;;;;;;17.56;63.83;101289.72;2104799;28;20040;-70
2022/05/17 01:17:41;;;;;;;7.80;4.03;;;;;;;17.59;63.77;101290.59;2102801;28;20462;-70
2022/05/17 01:19:06;;;;;;;9.18;4.63;;;;;;;17.60;63.74;101299.50;2102969;28;20067;-70
2022/05/17 01:20:29;;;;;;;8.98;3.90;;;;;;;17.59;63.74;101295.06;2109036;28;20051;-70
2022/05/17 01:21:53;;;;;;;6.07;3.45;;;;;;;17.59;63.77;101295.94;2104907;28;20166;-70
2022/05/17 01:23:16;;;;;;;9.32;4.32;;;;;;;17.58;63.86;101294.19;2100179;28;20044;-70
2022/05/17 01:24:39;;;;;;;9.27;4.00;;;;;;;17.56;63.88;101292.41;2116495;27;20035;-70
2022/05/17 01:26:02;;;;;;;8.70;4.05;;;;;;;17.56;63.83;101295.06;2103379;28;20070;-70
2022/05/17 01:27:29;;;;;;;6.20;3.67;;;;;;;17.57;63.90;101289.72;2108203;28;20039;-70
2022/05/17 01:28:51;;;;;;;8.23;4.57;;;;;;;17.57;63.83;101296.84;2096154;28;20448;-71
2022/05/17 01:30:17;;;;;;;9.45;4.65;;;;;;;17.55;63.88;101294.19;2101788;28;20050;-70
2022/05/17 01:31:39;;;;;;;8.98;3.97;;;;;;;17.53;63.95;101293.28;2100655;28;20480;-69
2022/05/17 01:33:02;;;;;;;7.78;3.88;;;;;;;17.48;63.95;101285.31;2102077;28;20040;-70
2022/05/17 01:34:25;;;;;;;5.78;3.80;;;;;;;17.44;64.10;101282.66;2110562;28;20059;-70
2022/05/17 01:35:48;;;;;;;9.95;3.63;;;;;;;17.39;64.22;101292.47;2109315;28;20047;-72
2022/05/17 01:37:12;;;;;;;7.18;4.43;;;;;;;17.37;64.41;101281.81;2110576;28;20047;-70
2022/05/17 01:38:37;;;;;;;6.97;4.15;;;;;;;17.40;64.33;101287.13;2110983;28;20070;-70
2022/05/17 01:39:59;;;;;;;7.63;3.70;;;;;;;17.44;64.17;101277.31;2110605;28;20047;-70
2022/05/17 01:41:24;;;;;;;8.43;4.40;;;;;;;17.50;64.10;101285.31;2102106;28;20508;-70
2022/05/17 01:42:47;;;;;;;9.60;4.45;;;;;;;17.53;63.94;101286.16;2108823;28;20059;-70
2022/05/17 01:44:10;;;;;;;11.02;4.63;;;;;;;17.55;63.81;101283.50;2102052;28;20032;-70
2022/05/17 01:45:33;;;;;;;7.13;4.18;;;;;;;17.53;63.67;101288.84;2102257;28;20052;-70
2022/05/17 01:46:54;;;;;;;7.47;4.03;;;;;;;17.52;63.73;101280.84;2109656;28;20394;-70
2022/05/17 01:48:17;;;;;;;7.30;3.83;;;;;;;17.51;63.72;101282.63;2109908;28;20053;-70
2022/05/17 01:49:38;;;;;;;6.07;4.28;;;;;;;17.50;63.67;101280.84;2096057;28;20060;-70
2022/05/17 01:51:02;;;;;;;10.05;4.07;;;;;;;17.50;63.55;101280.84;2109516;28;20139;-70
2022/05/17 01:52:26;;;;;;;6.93;3.88;;;;;;;17.51;63.62;101281.75;2110432;28;20051;-70
2022/05/17 01:53:49;;;;;;;7.55;4.32;;;;;;;17.52;63.43;101280.84;2101109;28;20093;-71
2022/05/17 01:55:11;;;;;;;7.75;4.10;;;;;;;17.48;63.39;101276.41;2099601;28;20036;-69
2022/05/17 01:56:34;;;;;;;8.13;4.10;;;;;;;17.43;63.55;101280.88;2104575;28;20055;-71
2022/05/17 01:57:55;;;;;;;8.32;4.38;;;;;;;17.39;63.62;101280.00;2110428;28;20051;-70
2022/05/17 01:59:18;;;;;;;7.57;3.92;;;;;;;17.39;63.77;101279.13;2096297;28;20106;-70
2022/05/17 02:00:40;;;;;;;7.78;3.65;;;;;;;17.35;63.89;101286.25;2093395;28;20041;-70
2022/05/17 02:02:03;;;;;;;7.25;3.92;;;;;;;17.33;64.00;101280.03;2099473;28;20048;-70
2022/05/17 02:03:26;;;;;;;8.75;4.55;;;;;;;17.34;64.01;101287.13;2109555;28;20035;-70
2022/05/17 02:04:48;;;;;;;10.15;5.25;;;;;;;17.38;64.00;101288.03;2109091;28;20569;-70
2022/05/17 02:06:10;;;;;;;9.07;4.63;;;;;;;17.39;63.94;101287.16;2109211;28;20032;-70
2022/05/17 02:07:35;;;;;;;12.73;4.53;;;;;;;17.39;63.83;101277.31;2113025;28;20047;-71
2022/05/17 02:08:58;;;;;;;7.60;4.18;;;;;;;17.39;63.90;101288.00;2104460;28;20051;-71
2022/05/17 02:10:25;;;;;;;7.85;3.63;;;;;;;17.36;63.87;101282.69;2101908;28;20097;-70
2022/05/17 02:11:48;;;;;;;11.65;4.47;;;;;;;17.32;63.88;101283.63;2094181;28;20107;-71
2022/05/17 02:13:10;;;;;;;6.57;4.13;;;;;;;17.32;64.13;101285.38;2099178;28;20059;-70
2022/05/17 02:14:33;;;;;;;9.02;3.72;;;;;;;17.30;64.01;101282.72;2115662;27;20054;-70
2022/05/17 02:15:54;;;;;;;7.13;3.28;;;;;;;17.31;63.86;101284.50;2112158;28;20139;-70
2022/05/17 02:17:17;;;;;;;7.72;3.78;;;;;;;17.29;64.00;101280.94;2110093;28;20035;-70
2022/05/17 02:18:40;;;;;;;9.00;3.50;;;;;;;17.29;63.98;101277.38;2110233;28;20047;-71
2022/05/17 02:20:03;;;;;;;8.55;3.75;;;;;;;17.27;63.92;101285.38;2108407;28;20092;-70
2022/05/17 02:21:26;;;;;;;6.88;3.42;;;;;;;17.27;63.92;101282.72;2104544;28;20186;-70
2022/05/17 02:22:48;;;;;;;5.78;3.20;;;;;;;17.24;63.91;101282.75;2107640;28;20599;-70
2022/05/17 02:24:11;;;;;;;9.02;3.97;;;;;;;17.23;63.92;101280.97;2102365;28;20083;-71
2022/05/17 02:25:33;;;;;;;7.10;3.60;;;;;;;17.21;63.81;101285.41;2110168;28;20426;-70
2022/05/17 02:27:02;;;;;;;7.57;3.67;;;;;;;17.18;63.86;101285.44;2101914;28;20515;-71
2022/05/17 02:28:24;;;;;;;8.60;4.25;;;;;;;17.15;63.99;101280.09;2107975;28;20043;-72
2022/05/17 02:29:46;;;;;;;8.57;4.35;;;;;;;17.11;64.04;101281.00;2100699;28;20048;-71
2022/05/17 02:31:11;;;;;;;7.55;3.70;;;;;;;17.13;64.10;101279.22;2107605;28;20595;-71
2022/05/17 02:32:32;;;;;;;7.07;3.42;;;;;;;17.16;64.06;101275.63;2104142;28;20040;-71
2022/05/17 02:33:55;;;;;;;9.52;4.05;;;;;;;17.18;63.85;101280.09;2092407;28;20041;-71
2022/05/17 02:35:17;;;;;;;7.35;3.35;;;;;;;17.20;63.77;101278.28;2107557;28;20519;-71
2022/05/17 02:36:40;;;;;;;10.52;4.25;;;;;;;17.19;63.66;101272.97;2110916;28;20043;-71
2022/05/17 02:38:04;;;;;;;8.27;4.00;;;;;;;17.20;63.69;101282.75;2101764;28;20677;-71
2022/05/17 02:39:27;;;;;;;8.98;3.80;;;;;;;17.18;63.60;101282.75;2101522;28;20051;-71
2022/05/17 02:40:50;;;;;;;6.63;3.25;;;;;;;17.17;63.65;101275.66;2110109;28;20056;-71
2022/05/17 02:42:13;;;;;;;9.35;4.75;;;;;;;17.16;63.64;101284.53;2101719;28;20050;-71
2022/05/17 02:43:35;;;;;;;7.97;3.58;;;;;;;17.15;63.70;101277.41;2106913;28;20043;-71
2022/05/17 02:44:56;;;;;;;6.43;3.30;;;;;;;17.16;63.70;101270.31;2109002;28;20384;-71
2022/05/17 02:46:19;;;;;;;7.18;4.10;;;;;;;17.16;63.72;101270.31;2102623;28;20161;-71
2022/05/17 02:47:41;;;;;;;8.15;3.80;;;;;;;17.17;63.69;101280.09;2103915;28;20070;-71
2022/05/17 02:49:07;;;;;;;8.32;3.30;;;;;;;17.18;63.66;101272.09;2118377;27;20492;-71
2022/05/17 02:50:29;;;;;;;6.55;3.78;;;;;;;17.15;63.69;101269.41;2107855;28;20043;-72
2022/05/17 02:51:54;;;;;;;8.25;3.85;;;;;;;17.14;63.60;101270.31;2104153;28;20044;-71
2022/05/17 02:53:19;;;;;;;7.25;4.10;;;;;;;17.17;63.61;101269.41;2101554;28;20044;-71
2022/05/17 02:54:40;;;;;;;8.48;3.78;;;;;;;17.16;63.48;101268.53;2118576;27;20047;-70
2022/05/17 02:56:03;;;;;;;6.90;3.95;;;;;;;17.13;63.54;101276.56;2111740;28;20047;-71
2022/05/17 02:57:25;;;;;;;6.68;4.07;;;;;;;17.08;63.63;101271.22;2107028;28;20051;-71
2022/05/17 02:58:47;;;;;;;9.05;3.63;;;;;;;17.07;63.72;101274.78;2108105;28;20055;-71
2022/05/17 03:00:12;;;;;;;7.63;3.80;;;;;;;17.06;63.81;101272.13;2103955;28;20453;-71
2022/05/17 03:01:35;;;;;;;10.38;3.60;;;;;;;17.05;63.81;101273.03;2108331;28;20050;-71
2022/05/17 03:02:58;;;;;;;8.23;3.53;;;;;;;17.06;63.94;101267.69;2105802;28;20063;-71
2022/05/17 03:04:20;;;;;;;9.48;3.40;;;;;;;17.07;63.83;101269.44;2109052;28;20042;-71
2022/05/17 03:05:43;;;;;;;9.18;4.72;;;;;;;17.07;63.70;101272.09;2109514;28;20048;-71
2022/05/17 03:07:07;;;;;;;10.65;4.00;;;;;;;17.08;63.80;101275.66;2101563;28;20060;-70
2022/05/17 03:08:30;;;;;;;6.32;3.90;;;;;;;17.10;63.70;101269.44;2093379;28;20047;-71
2022/05/17 03:09:53;;;;;;;5.85;3.40;;;;;;;17.11;63.65;101265.00;2102928;28;20032;-70
2022/05/17 03:11:16;;;;;;;12.32;4.15;;;;;;;17.14;63.63;101270.31;2109899;28;20059;-70
2022/05/17 03:12:38;;;;;;;8.68;4.05;;;;;;;17.16;63.59;101268.53;2101530;28;20040;-70
2022/05/17 03:14:01;;;;;;;10.52;3.53;;;;;;;17.18;63.52;101269.41;2098010;28;20132;-71
2022/05/17 03:15:23;;;;;;;6.38;3.30;;;;;;;17.20;63.35;101272.09;2109807;28;20076;-70
2022/05/17 03:16:45;;;;;;;8.05;4.05;;;;;;;17.19;63.35;101268.53;2100093;28;20139;-70
2022/05/17 03:18:07;;;;;;;6.35;3.40;;;;;;;17.18;63.28;101269.41;2105974;28;20066;-70
2022/05/17 03:19:29;;;;;;;5.95;2.90;;;;;;;17.17;63.37;101272.97;2093144;28;20081;-70
2022/05/17 03:20:52;;;;;;;7.90;3.63;;;;;;;17.18;63.37;101269.41;2090156;28;20037;-71
2022/05/17 03:22:14;;;;;;;7.03;3.58;;;;;;;17.14;63.40;101267.63;2103041;28;20131;-70
2022/05/17 03:23:38;;;;;;;5.55;3.38;;;;;;;17.13;63.56;101273.91;2101284;28;20293;-71
2022/05/17 03:25:01;;;;;;;8.18;3.50;;;;;;;17.11;63.69;101278.34;2107479;28;20109;-70
2022/05/17 03:26:22;;;;;;;7.20;3.50;;;;;;;17.12;63.84;101281.00;2108535;28;20513;-71
2022/05/17 03:27:45;;;;;;;8.30;3.53;;;;;;;17.16;63.92;101270.31;2101638;28;20150;-71
2022/05/17 03:29:07;;;;;;;7.70;3.72;;;;;;;17.22;64.03;101276.50;2106870;28;20069;-70
2022/05/17 03:30:30;;;;;;;9.15;3.92;;;;;;;17.32;63.91;101277.38;2101433;28;20441;-71
2022/05/17 03:31:53;;;;;;;5.88;3.05;;;;;;;17.41;63.96;101275.53;2107147;28;20047;-71
2022/05/17 03:33:15;;;;;;;9.60;3.85;;;;;;;17.51;63.82;101274.63;2108997;28;20064;-71
2022/05/17 03:34:38;;;;;;;11.60;4.22;;;;;;;17.62;63.63;101276.38;2099972;28;20478;-71
2022/05/17 03:36:00;;;;;;;6.50;3.47;;;;;;;17.71;63.43;101285.25;2101596;28;20079;-72
2022/05/17 03:37:24;;;;;;;5.78;2.70;;;;;;;17.82;63.25;101282.50;2103965;28;20040;-71
2022/05/17 03:38:50;;;;;;;8.20;3.40;;;;;;;17.93;63.07;101280.66;2106651;28;20066;-71
2022/05/17 03:40:14;;;;;;;8.10;3.28;;;;;;;18.04;62.99;101284.16;2110148;28;20148;-70
2022/05/17 03:41:35;;;;;;;8.15;3.45;;;;;;;18.13;62.74;101278.72;2109878;28;20067;-71
2022/05/17 03:42:58;;;;;;;6.60;2.90;;;;;;;18.22;62.50;101278.69;2111250;28;20043;-71
2022/05/17 03:44:20;;;;;;;6.78;3.47;;;;;;;18.32;62.36;101288.38;2106285;28;20047;-71
2022/05/17 03:45:42;;;;;;;8.30;3.28;;;;;;;18.41;62.23;101289.22;2093098;28;20037;-71
2022/05/17 03:47:05;;;;;;;8.98;3.45;;;;;;;18.50;62.03;101289.16;2098496;28;20052;-70
2022/05/17 03:48:30;;;;;;;6.97;3.53;;;;;;;18.59;61.94;101284.63;2097030;28;20044;-71
2022/05/17 03:49:53;;;;;;;5.07;3.05;;;;;;;18.70;61.75;101292.59;2108740;28;20142;-71
2022/05/17 03:51:17;;;;;;;8.45;3.25;;;;;;;18.82;61.59;101297.81;2109442;28;20036;-70
2022/05/17 03:52:40;;;;;;;12.55;4.05;;;;;;;18.91;61.62;101295.03;2095913;28;20198;-70
2022/05/17 03:54:04;;;;;;;6.05;3.58;;;;;;;19.04;61.44;101302.03;2098979;28;20461;-71
2022/05/17 03:55:26;;;;;;;5.57;3.47;;;;;;;19.15;61.30;101298.38;2101116;28;20139;-71
2022/05/17 03:56:48;;;;;;;6.72;3.53;;;;;;;19.29;61.10;101296.44;2116448;28;20047;-71
2022/05/17 03:58:11;;;;;;;6.50;3.20;;;;;;;19.40;60.86;101297.19;2105259;28;20060;-70
2022/05/17 03:59:34;;;;;;;6.18;3.30;;;;;;;19.52;60.74;101294.38;2100205;28;20101;-71
2022/05/17 04:00:57;;;;;;;10.10;3.60;;;;;;;19.65;60.36;101300.47;2105860;28;20507;-70
2022/05/17 04:02:20;;;;;;;4.72;2.80;;;;;;;19.74;59.92;101295.00;2111597;28;20079;-71
2022/05/17 04:03:43;;;;;;;6.20;3.28;;;;;;;19.82;59.93;101291.28;2098629;28;20071;-71
2022/05/17 04:05:06;;;;;;;8.57;3.58;;;;;;;19.93;59.51;101295.63;2100516;28;20539;-71
2022/05/17 04:06:29;;;;;;;7.00;3.08;;;;;;;20.04;59.08;101296.34;2119032;27;20054;-70
2022/05/17 04:07:52;;;;;;;7.03;3.15;;;;;;;20.13;58.86;101298.91;2113677;28;20047;-70
2022/05/17 04:09:16;;;;;;;8.48;3.63;;;;;;;20.26;58.25;101300.47;2102939;28;20044;-70
2022/05/17 04:10:39;;;;;;;10.25;3.25;;;;;;;20.36;57.97;101304.81;2108465;28;20068;-71
2022/05/17 04:12:01;;;;;;;6.30;3.42;;;;;;;20.45;57.69;101296.63;2111235;28;20134;-70
2022/05/17 04:13:26;;;;;;;7.10;3.38;;;;;;;20.59;57.59;101304.44;2105518;28;20138;-71
2022/05/17 04:14:48;;;;;;;6.38;3.17;;;;;;;20.72;57.63;101299.75;2110495;28;20059;-71
2022/05/17 04:16:10;;;;;;;5.35;3.20;;;;;;;20.84;57.26;101303.09;2101527;28;20040;-71
2022/05/17 04:17:32;;;;;;;8.63;3.35;;;;;;;20.97;57.00;101301.97;2102655;28;20519;-70
2022/05/17 04:18:54;;;;;;;7.82;3.92;;;;;;;21.10;56.56;101305.31;2098910;28;20166;-71
2022/05/17 04:20:18;;;;;;;8.52;4.03;;;;;;;21.25;56.11;101317.59;2099312;28;20044;-71
2022/05/17 04:21:41;;;;;;;9.13;3.40;;;;;;;21.40;55.98;101310.09;2110936;27;20049;-70
2022/05/17 04:23:04;;;;;;;8.80;3.65;;;;;;;21.53;55.41;101302.66;2104905;28;20547;-70
2022/05/17 04:24:28;;;;;;;7.88;3.75;;;;;;;21.69;55.14;101316.69;2110938;28;20040;-71
2022/05/17 04:25:49;;;;;;;5.30;3.13;;;;;;;21.81;54.75;101316.41;2102642;28;20055;-71
2022/05/17 04:27:13;;;;;;;6.60;3.42;;;;;;;21.95;54.48;101313.44;2108351;28;20039;-71
2022/05/17 04:28:35;;;;;;;8.73;3.45;;;;;;;22.09;54.03;101317.63;2102739;28;20036;-71
2022/05/17 04:29:57;;;;;;;11.00;3.65;;;;;;;22.24;53.53;101317.25;2107296;28;20043;-71
2022/05/17 04:31:20;;;;;;;14.80;4.05;;;;;;;22.41;53.30;101310.59;2102717;28;20132;-71
2022/05/17 04:32:44;;;;;;;11.25;3.30;;;;;;;22.57;52.93;101309.28;2100067;28;20043;-71
2022/05/17 04:34:06;;;;;;;9.10;3.47;;;;;;;22.76;52.43;101309.75;2108756;28;20047;-71
2022/05/17 04:35:29;;;;;;;7.00;3.70;;;;;;;22.93;52.03;101311.06;2110425;28;20051;-72
2022/05/17 04:36:52;;;;;;;5.57;2.90;;;;;;;23.09;51.78;101318.75;2094457;28;20083;-71
2022/05/17 04:38:15;;;;;;;7.80;3.65;;;;;;;23.27;51.31;101311.03;2108827;28;20050;-71
2022/05/17 04:39:39;;;;;;;10.65;3.40;;;;;;;23.46;50.96;101316.78;2096952;28;20260;-72
2022/05/17 04:41:03;;;;;;;9.20;2.85;;;;;;;23.62;50.33;101312.75;2106384;28;20043;-71
2022/05/17 04:42:26;;;;;;;7.47;2.70;;;;;;;23.82;49.85;101322.94;2100100;28;20040;-71
2022/05/17 04:43:49;;;;;;;9.25;2.60;;;;;;;24.00;49.35;101318.81;2099469;28;20067;-71
2022/05/17 04:45:15;;;;;;;9.70;2.70;;;;;;;24.21;49.16;101320.88;2100092;28;20070;-71
2022/05/17 04:46:38;;;;;;;5.38;2.47;;;;;;;24.38;48.47;101326.59;2109017;28;20043;-71
2022/05/17 04:47:59;;;;;;;5.55;2.60;;;;;;;24.55;48.19;101321.50;2102456;28;20142;-71
2022/05/17 04:49:22;;;;;;;6.03;2.40;;;;;;;24.74;47.93;101324.50;2107240;28;20051;-72
2022/05/17 04:50:44;;;;;;;6.70;2.42;;;;;;;24.95;47.26;101331.00;2107538;28;20043;-72
2022/05/17 04:52:07;;;;;;;;;;;;;;;25.10;46.69;101325.06;2094329;28;20044;-72
2022/05/17 04:53:30;;;;;;;4.20;2.00;;;;;;;25.35;46.72;101323.25;2097630;28;19926;-71
2022/05/17 04:54:54;;;;;;;5.85;2.65;;;;;;;25.59;45.99;101321.50;2105477;28;20039;-71
2022/05/17 04:56:16;;;;;;;6.32;3.63;;;;;;;25.80;45.33;101317.06;2097868;28;20147;-70
2022/05/17 04:57:41;;;;;;;7.95;2.70;;;;;;;26.03;44.68;101318.91;2099899;28;20519;-72
2022/05/17 04:59:04;;;;;;;6.00;2.55;;;;;;;26.24;44.43;101322.59;2096192;28;20389;-71
2022/05/17 05:00:26;;;;;;;4.43;2.67;;;;;;;26.47;43.93;101325.25;2107872;28;20035;-71
2022/05/17 05:01:49;;;;;;;5.07;2.60;;;;;;;26.67;43.23;101319.88;2110797;28;20495;-71
2022/05/17 05:03:12;;;;;;;7.57;2.28;;;;;;;26.87;42.98;101321.75;2110332;28;20522;-71
2022/05/17 05:04:34;;;;;;;7.03;2.50;;;;;;;27.10;42.54;101324.41;2109585;28;20050;-72
2022/05/17 05:05:58;;;;;;;8.90;2.50;;;;;;;27.33;41.90;101320.66;2110618;28;20035;-71
2022/05/17 05:07:20;;;;;;;7.00;2.65;;;;;;;27.57;41.32;101316.00;2109633;28;20038;-71
2022/05/17 05:08:42;;;;;;;5.93;2.20;;;;;;;27.76;40.88;101315.03;2098615;28;20139;-71
2022/05/17 05:10:07;;;;;;;6.47;2.17;;;;;;;27.95;40.58;101320.50;2106422;28;20043;-71
2022/05/17 05:11:30;;;;;;;7.20;2.50;;;;;;;28.15;39.93;101311.44;2097728;28;20059;-72
2022/05/17 05:12:53;;;;;;;7.18;2.17;;;;;;;28.32;39.41;101319.63;2095469;28;20085;-72
2022/05/17 05:14:21;;;;;;;4.88;2.17;;;;;;;28.48;38.91;101323.38;2101639;28;20071;-71
2022/05/17 05:15:44;;;;;;;6.10;2.17;;;;;;;28.67;38.53;101311.56;2107355;28;20055;-72
2022/05/17 05:17:09;;;;;;;3.80;2.28;;;;;;;28.86;38.13;101317.84;2097427;28;20047;-71
2022/05/17 05:18:32;;;;;;;5.15;2.10;;;;;;;29.13;37.63;101310.97;2107530;28;20883;-71
2022/05/17 05:19:54;;;;;;;6.28;2.15;;;;;;;29.41;37.19;101310.38;2096424;28;20048;-72
2022/05/17 05:21:17;;;;;;;6.90;2.47;;;;;;;29.65;36.94;101314.53;2092511;28;20139;-71
2022/05/17 05:22:39;;;;;;;6.18;2.33;;;;;;;29.91;36.50;101315.78;2114532;27;20134;-71
2022/05/17 05:24:04;;;;;;;10.07;2.95;;;;;;;30.12;36.35;101318.31;2111305;28;20426;-71
2022/05/17 05:25:29;;;;;;;6.10;2.97;;;;;;;30.29;36.20;101318.22;2105336;28;20040;-72
2022/05/17 05:26:52;;;;;;;7.13;2.65;;;;;;;30.37;36.20;101313.19;2115411;27;20047;-71
2022/05/17 05:28:15;;;;;;;5.65;2.75;;;;;;;30.48;36.24;101316.16;2102666;28;20051;-71
2022/05/17 05:29:37;;;;;;;7.53;2.70;;;;;;;30.60;35.93;101312.75;2102894;28;20028;-71
2022/05/17 05:31:03;;;;;;;5.47;2.80;;;;;;;30.77;35.68;101318.09;2104659;28;20108;-71
2022/05/17 05:32:25;;;;;;;6.43;2.67;;;;;;;30.87;35.39;101329.31;2110444;28;20044;-72
2022/05/17 05:33:48;;;;;;;5.43;2.60;;;;;;;30.97;35.18;101322.38;2108582;28;20056;-72
2022/05/17 05:35:10;;;;;;;5.40;2.50;;;;;;;31.14;34.49;101321.34;2112419;27;20063;-72
2022/05/17 05:36:33;;;;;;;6.97;2.72;;;;;;;31.29;34.12;101320.41;2098162;28;20492;-71
2022/05/17 05:37:59;;;;;;;6.00;2.08;;;;;;;31.44;33.62;101321.34;2105574;28;20130;-71
2022/05/17 05:39:22;;;;;;;9.88;2.30;;;;;;;31.54;33.59;101327.94;2098938;28;20044;-71
2022/05/17 05:40:46;;;;;;;8.35;2.53;;;;;;;31.69;33.12;101323.41;2107634;27;20039;-71
2022/05/17 05:42:09;;;;;;;5.53;2.30;;;;;;;31.85;32.84;101326.91;2100316;28;20040;-71
2022/05/17 05:43:31;;;;;;;7.72;2.10;;;;;;;31.96;32.33;101325.25;2098195;28;20048;-71
2022/05/17 05:44:53;;;;;;;6.35;1.92;;;;;;;32.05;32.24;101323.78;2105922;28;20135;-72
2022/05/17 05:46:16;;;;;;;7.03;2.40;;;;;;;32.09;32.05;101327.19;2096520;28;20052;-71
2022/05/17 05:47:39;;;;;;;7.25;2.20;;;;;;;32.12;31.88;101327.84;2107943;28;20035;-71
2022/05/17 05:49:00;;;;;;;6.22;2.05;;;;;;;32.15;31.78;101324.97;2109548;28;20048;-71
2022/05/17 05:50:23;;;;;;;7.70;2.28;;;;;;;32.17;31.78;101320.25;2109184;28;20563;-72
2022/05/17 05:51:46;;;;;;;6.65;2.20;;;;;;;32.23;31.35;101319.84;2103642;28;20044;-71
2022/05/17 05:53:11;;;;;;;6.72;2.20;;;;;;;32.36;31.10;101325.41;2105703;28;20062;-71
2022/05/17 05:54:33;;;;;;;4.97;1.95;;;;;;;32.38;30.89;101326.16;2110286;28;20051;-72
2022/05/17 05:56:01;;;;;;;7.28;2.55;;;;;;;32.37;31.25;101325.28;2107650;28;20748;-72
2022/05/17 05:57:24;;;;;;;8.30;2.10;;;;;;;32.49;30.68;101328.22;2108574;28;20077;-71
2022/05/17 05:58:45;;;;;;;5.45;2.08;;;;;;;32.55;30.49;101314.13;2101676;28;20162;-72
2022/05/17 06:00:09;;;;;;;5.00;2.22;;;;;;;32.63;30.41;101333.59;2104158;28;20103;-72
2022/05/17 06:01:36;;;;;;;8.07;2.45;;;;;;;32.71;30.50;101321.22;2109573;28;20074;-72
2022/05/17 06:02:59;;;;;;;4.28;2.00;;;;;;;32.81;29.98;101327.81;2110087;28;20204;-73
2022/05/17 06:04:21;;;;;;;8.52;2.35;;;;;;;32.88;29.95;101331.03;2111874;28;20063;-72
2022/05/17 06:05:44;;;;;;;5.85;1.90;;;;;;;32.90;29.82;101331.75;2108503;28;20387;-72
2022/05/17 06:07:07;;;;;;;5.72;1.90;;;;;;;32.89;29.73;101329.13;2101490;28;20750;-72
2022/05/17 06:08:29;;;;;;;7.40;2.13;;;;;;;32.92;29.69;101327.06;2100969;28;20040;-73
2022/05/17 06:09:51;;;;;;;8.40;2.50;;;;;;;32.95;29.60;101328.72;2105843;28;20039;-73
2022/05/17 06:11:15;;;;;;;5.45;2.10;;;;;;;33.01;29.80;101331.94;2108093;28;20051;-72
2022/05/17 06:12:38;;;;;;;10.10;2.22;;;;;;;33.07;29.55;101336.09;2104362;28;20088;-73
2022/05/17 06:14:01;;;;;;;5.22;2.05;;;;;;;32.91;30.03;101325.31;2102226;28;20364;-73
2022/05/17 06:15:23;;;;;;;6.22;2.40;;;;;;;32.64;30.73;101327.16;2097097;28;20554;-73
2022/05/17 06:16:45;;;;;;;6.00;2.47;;;;;;;32.54;31.64;101334.25;2097857;28;20048;-73
2022/05/17 06:18:09;;;;;;;10.70;3.15;;;;;;;32.53;31.88;101333.38;2102436;28;20511;-72
2022/05/17 06:19:33;;;;;;;6.35;2.08;;;;;;;32.47;32.26;101328.31;2104337;28;20566;-73
2022/05/17 06:20:56;;;;;;;5.32;2.22;;;;;;;32.43;32.27;101330.34;2112374;28;20043;-74
2022/05/17 06:22:19;;;;;;;5.10;2.20;;;;;;;32.43;32.42;101329.47;2109969;28;20048;-74
2022/05/17 06:23:42;;;;;;;6.63;2.13;;;;;;;32.40;32.12;101330.56;2110727;28;20833;-73
2022/05/17 06:25:05;;;;;;;7.07;2.25;;;;;;;32.31;31.95;101330.28;2108387;28;20059;-73
2022/05/17 06:26:29;;;;;;;7.85;2.20;;;;;;;32.39;31.84;101330.66;2109911;28;20043;-73
2022/05/17 06:27:52;;;;;;;8.02;2.28;;;;;;;32.47;31.78;101341.09;2111687;28;20576;-73
2022/05/17 06:29:13;;;;;;;6.22;2.60;;;;;;;32.58;31.98;101342.13;2102594;28;20052;-73
2022/05/17 06:30:36;;;;;;;8.95;2.65;;;;;;;32.69;32.02;101338.72;2105964;28;20433;-72